ADDS METAR Data INFO
IDs: Format: Raw Decoded Include TAF

Data at: 0857 UTC 16 Jul 2018

METAR for:PADK (Adak (NAS), AK, US)
Text:PADK 160856Z AUTO 00000KT 10SM OVC014 08/06 A3033 RMK AO2 SLP272 T00780061 53002
Temperature: 7.8°C ( 46°F)
Dewpoint: 6.1°C ( 43°F) [RH = 89%]
Pressure (altimeter):30.33 inches Hg (1027.2 mb) [Sea level pressure: 1027.2 mb]
Winds:calm
Visibility:10 or more sm (16+ km)
Ceiling:1400 feet AGL
Clouds: overcast cloud deck at 1400 feet AGL
QC Flag:automated observation with no human augmentation
Text:PADK 160756Z AUTO 00000KT 10SM OVC014 08/06 A3033 RMK AO2 SLP270 T00780061
Temperature: 7.8°C ( 46°F)
Dewpoint: 6.1°C ( 43°F) [RH = 89%]
Pressure (altimeter):30.33 inches Hg (1027.2 mb) [Sea level pressure: 1027.0 mb]
Winds:calm
Visibility:10 or more sm (16+ km)
Ceiling:1400 feet AGL
Clouds: overcast cloud deck at 1400 feet AGL
QC Flag:automated observation with no human augmentation
Text:PADK 160656Z AUTO 10003KT 10SM OVC014 08/07 A3033 RMK AO2 SLP270 T00780067
Temperature: 7.8°C ( 46°F)
Dewpoint: 6.7°C ( 44°F) [RH = 93%]
Pressure (altimeter):30.33 inches Hg (1027.2 mb) [Sea level pressure: 1027.0 mb]
Winds:from the E (100 degrees) at 3 MPH (3 knots; 1.5 m/s)
Visibility:10 or more sm (16+ km)
Ceiling:1400 feet AGL
Clouds: overcast cloud deck at 1400 feet AGL
QC Flag:automated observation with no human augmentation
Text:PADK 160627Z AUTO 11003KT 10SM OVC014 08/06 A3032 RMK AO2
Temperature: 8.0°C ( 46°F)
Dewpoint: 6.0°C ( 43°F) [RH = 87%]
Pressure (altimeter):30.32 inches Hg (1026.8 mb)
Winds:from the ESE (110 degrees) at 3 MPH (3 knots; 1.5 m/s)
Visibility:10 or more sm (16+ km)
Ceiling:1400 feet AGL
Clouds: overcast cloud deck at 1400 feet AGL
QC Flag:automated observation with no human augmentation
Text:PADK 160556Z AUTO 09003KT 10SM OVC016 08/06 A3033 RMK AO2 SLP269 T00830061 10089 20078 56005
Temperature: 8.3°C ( 47°F)
Dewpoint: 6.1°C ( 43°F) [RH = 86%]
Pressure (altimeter):30.33 inches Hg (1027.2 mb) [Sea level pressure: 1026.9 mb]
Winds:from the E (90 degrees) at 3 MPH (3 knots; 1.5 m/s)
Visibility:10 or more sm (16+ km)
Ceiling:1600 feet AGL
Clouds: overcast cloud deck at 1600 feet AGL
QC Flag:automated observation with no human augmentation
Text:PADK 160551Z AUTO 10003KT 10SM OVC016 08/06 A3033 RMK AO2
Temperature: 8.0°C ( 46°F)
Dewpoint: 6.0°C ( 43°F) [RH = 87%]
Pressure (altimeter):30.33 inches Hg (1027.2 mb)
Winds:from the E (100 degrees) at 3 MPH (3 knots; 1.5 m/s)
Visibility:10 or more sm (16+ km)
Ceiling:1600 feet AGL
Clouds: overcast cloud deck at 1600 feet AGL
QC Flag:automated observation with no human augmentation
Text:PADK 160456Z AUTO 11003KT 10SM BKN013 OVC020 08/06 A3033 RMK AO2 SLP271 T00830061
Temperature: 8.3°C ( 47°F)
Dewpoint: 6.1°C ( 43°F) [RH = 86%]
Pressure (altimeter):30.33 inches Hg (1027.2 mb) [Sea level pressure: 1027.1 mb]
Winds:from the ESE (110 degrees) at 3 MPH (3 knots; 1.5 m/s)
Visibility:10 or more sm (16+ km)
Ceiling:1300 feet AGL
Clouds: broken clouds at 1300 feet AGL, overcast cloud deck at 2000 feet AGL
QC Flag:automated observation with no human augmentation
Text:PADK 160356Z AUTO 11004KT 10SM BKN013 OVC018 08/07 A3034 RMK AO2 SLP274 T00830067
Temperature: 8.3°C ( 47°F)
Dewpoint: 6.7°C ( 44°F) [RH = 90%]
Pressure (altimeter):30.34 inches Hg (1027.5 mb) [Sea level pressure: 1027.4 mb]
Winds:from the ESE (110 degrees) at 5 MPH (4 knots; 2.1 m/s)
Visibility:10 or more sm (16+ km)
Ceiling:1300 feet AGL
Clouds: broken clouds at 1300 feet AGL, overcast cloud deck at 1800 feet AGL
QC Flag:automated observation with no human augmentation
Text:PADK 160345Z AUTO 11004KT 10SM BKN013 OVC018 08/07 A3034 RMK AO2
Temperature: 8.0°C ( 46°F)
Dewpoint: 7.0°C ( 45°F) [RH = 93%]
Pressure (altimeter):30.34 inches Hg (1027.5 mb)
Winds:from the ESE (110 degrees) at 5 MPH (4 knots; 2.1 m/s)
Visibility:10 or more sm (16+ km)
Ceiling:1300 feet AGL
Clouds: broken clouds at 1300 feet AGL, overcast cloud deck at 1800 feet AGL
QC Flag:automated observation with no human augmentation
Text:PADK 160325Z AUTO 08005KT 10SM OVC016 08/07 A3034 RMK AO2
Temperature: 8.0°C ( 46°F)
Dewpoint: 7.0°C ( 45°F) [RH = 93%]
Pressure (altimeter):30.34 inches Hg (1027.5 mb)
Winds:from the E (80 degrees) at 6 MPH (5 knots; 2.6 m/s)
Visibility:10 or more sm (16+ km)
Ceiling:1600 feet AGL
Clouds: overcast cloud deck at 1600 feet AGL
QC Flag:automated observation with no human augmentation

TAF for:PADK (Adak (NAS), AK, US)
Text:No data found